Latest Weather Observations for Ivanhoe Airport

IDN60801

Issued at 5:35 pm EST Wednesday 3 September 2014 (issued every 30 minutes, with the page automatically refreshed every 10 minutes)

About weather observations | Map of weather stations | Latest weather observations for NSW | Other Formats
Station Details ID: 049000 Name: IVANHOE AERODROME AWS Lat: -32.88 Lon: 144.31 Height: 100.0 m
Data from the previous 72 hours. | See also: Recent months at Ivanhoe Airport
Date/Time
EST
Temp
°C
App
Temp
°C
Dew
Point
Rel
Hum
%
Delta-T
°C
Wind Press
QNH
hPa
Press
MSL
hPa
Rain
since 9 am
mm
Dir
 
Spd
km/h
Gust
km/h
Spd
kts
Gust
kts
03/05:30pm 15.1 10.0 0.5 37 6.2 SW 17 24 9 13 1019.5 1019.4 0.0
03/05:00pm 15.6 10.4 0.2 35 6.6 SW 17 24 9 13 1019.5 1019.4 0.0
03/04:30pm 16.5 11.1 1.0 35 6.8 SW 19 26 10 14 1019.4 1019.3 0.0
03/04:00pm 16.9 11.8 1.0 34 7.0 SW 17 28 9 15 1019.5 1019.4 0.0
03/03:30pm 16.7 12.0 1.2 35 6.9 SW 15 28 8 15 1019.4 1019.3 0.0
03/03:00pm 16.3 10.8 0.8 35 6.8 SW 19 26 10 14 1019.5 1019.4 0.0
03/02:30pm 16.4 10.8 0.9 35 6.8 SW 20 26 11 14 1019.7 1019.6 0.0
03/02:00pm 16.2 11.5 1.1 36 6.6 SSW 15 28 8 15 1020.0 1019.9 0.0
03/01:30pm 16.1 11.4 1.0 36 6.6 SSW 15 24 8 13 1020.2 1020.1 0.0
03/01:00pm 16.0 10.7 2.1 39 6.2 SSW 19 22 10 12 1020.8 1020.7 0.0
03/12:30pm 15.3 10.3 1.4 39 6.1 SSW 17 26 9 14 1021.4 1021.3 0.0
03/12:00pm 14.3 9.6 0.9 40 5.7 S 15 26 8 14 1021.9 1021.8 0.0
03/11:30am 14.5 10.1 2.7 45 5.3 S 15 24 8 13 1022.5 1022.4 0.0
03/11:00am 14.6 9.4 2.5 44 5.4 S 19 35 10 19 1022.5 1022.4 0.0
03/10:30am 13.3 8.2 2.8 49 4.7 SSE 19 30 10 16 1022.8 1022.7 0.0
03/10:00am 12.2 6.9 2.9 53 4.1 S 20 26 11 14 1023.1 1023.0 0.0
03/09:30am 11.4 6.5 3.9 60 3.4 S 19 26 10 14 1023.5 1023.4 0.0
03/09:00am 10.4 6.0 4.8 68 2.5 S 17 24 9 13 1023.8 1023.7 0.0
03/08:30am 8.7 4.6 4.3 74 1.9 S 15 20 8 11 1023.9 1023.8 0.0
03/08:00am 6.2 2.6 4.8 91 0.6 SSW 13 17 7 9 1023.7 1023.6 0.0
03/07:30am 4.0 0.6 3.9 99 0.0 SW 11 15 6 8 1023.4 1023.3 0.0
03/07:00am 2.6 -0.7 2.5 99 0.0 SW 9 11 5 6 1023.0 1022.9 0.0
03/06:30am 2.1 -1.3 1.8 98 0.1 WSW 9 9 5 5 1022.9 1022.8 0.0
03/06:00am 2.6 -0.7 2.2 97 0.2 SW 9 11 5 6 1022.7 1022.6 0.0
03/05:30am 2.8 -0.6 2.1 95 0.3 SW 9 11 5 6 1022.4 - 0.0
03/05:00am 3.2 -0.1 2.2 93 0.4 SSW 9 11 5 6 1022.2 1022.1 0.0
03/04:30am 3.8 0.5 2.6 92 0.5 SSW 9 11 5 6 1021.8 - 0.0
03/04:00am 3.9 0.6 2.4 90 0.6 SW 9 11 5 6 1021.8 1021.7 0.0
03/03:30am 4.4 0.8 2.8 89 0.7 SSW 11 15 6 8 1021.9 - 0.0
03/03:00am 4.4 0.7 2.3 86 0.8 SW 11 13 6 7 1021.9 1021.8 0.0
03/02:30am 4.7 1.0 2.2 84 1.0 SW 11 13 6 7 1022.1 - 0.0
03/02:00am 5.4 1.3 2.2 80 1.3 SW 13 15 7 8 1022.4 1022.3 0.0
03/01:30am 5.7 2.0 2.2 78 1.4 SW 11 15 6 8 1022.4 - 0.0
03/01:00am 6.7 2.7 2.6 75 1.7 SW 13 17 7 9 1022.4 1022.3 0.0
03/12:30am 7.2 3.2 2.7 73 1.9 SW 13 17 7 9 1022.2 - 0.0
03/12:00am 7.6 3.5 2.3 69 2.2 SW 13 17 7 9 1021.8 1021.7 0.0
 
Date/Time
EST
Temp
°C
App
Temp
°C
Dew
Point
Rel
Hum
%
Delta-T
°C
Wind Press
QNH
hPa
Press
MSL
hPa
Rain
since 9 am
mm
Dir
 
Spd
km/h
Gust
km/h
Spd
kts
Gust
kts
02/11:30pm 8.2 4.1 2.2 66 2.5 SW 13 19 7 10 1021.9 - 0.0
02/11:00pm 8.5 4.0 2.1 64 2.7 SW 15 20 8 11 1022.0 1021.9 0.0
02/10:30pm 9.3 4.8 1.9 60 3.1 SW 15 20 8 11 1022.2 - 0.0
02/10:00pm 9.6 5.1 2.0 59 3.2 SW 15 20 8 11 1022.4 1022.3 0.0
02/09:30pm 10.2 5.7 2.3 58 3.4 SW 15 20 8 11 1022.3 - 0.0
02/09:00pm 10.4 6.0 2.5 58 3.4 WSW 15 19 8 10 1022.2 1022.1 0.0
02/08:30pm 11.1 7.0 2.4 55 3.8 SW 13 17 7 9 1022.0 - 0.0
02/08:00pm 11.6 7.1 2.1 52 4.1 SW 15 20 8 11 1021.9 1021.8 0.0
02/07:30pm 12.3 7.5 2.5 51 4.3 SW 17 22 9 12 1021.6 - 0.0
02/07:00pm 12.9 7.4 1.9 47 4.8 SW 20 30 11 16 1021.2 1021.1 0.0
02/06:30pm 13.5 7.3 2.1 46 5.0 SSW 24 35 13 19 1020.8 - 0.0
02/06:00pm 14.3 7.7 1.9 43 5.4 SSW 26 37 14 20 1020.3 1020.2 0.0
02/05:30pm 15.1 9.0 3.0 44 5.5 SSW 24 37 13 20 1019.9 - 0.0
02/05:00pm 15.1 9.1 3.3 45 5.4 SSW 24 37 13 20 1019.4 1019.3 0.0
02/04:30pm 16.0 8.9 3.8 44 5.7 SSW 30 43 16 23 1019.0 - 0.0
02/04:00pm 15.7 9.3 3.2 43 5.7 SW 26 35 14 19 1018.9 1018.8 0.0
02/03:30pm 16.2 9.9 3.6 43 5.8 SSW 26 43 14 23 1018.8 - 0.0
02/03:00pm 15.5 8.9 4.2 47 5.3 SW 28 39 15 21 1018.8 1018.7 0.0
02/02:49pm 16.5 9.5 4.2 44 5.8 SW 30 48 16 26 1018.8 - 0.0
02/02:30pm 16.0 8.9 3.8 44 5.7 SW 30 41 16 22 1018.8 - 0.0
02/02:00pm 15.6 9.0 4.0 46 5.4 SW 28 39 15 21 1018.8 1018.7 0.0
02/01:30pm 15.5 9.0 4.5 48 5.2 SW 28 43 15 23 1019.0 - 0.0
02/01:00pm 15.2 8.9 3.7 46 5.3 SW 26 37 14 20 1019.0 1018.9 0.0
02/12:30pm 15.2 8.3 4.6 49 5.0 SW 30 44 16 24 1019.0 - 0.0
02/12:00pm 14.7 7.9 5.0 52 4.6 SW 30 48 16 26 1019.1 1019.0 0.0
02/11:56am 14.3 7.5 4.9 53 4.4 SW 30 48 16 26 1019.2 - 0.0
02/11:30am 13.8 7.4 5.4 57 4.0 SW 28 39 15 21 1019.5 - 0.0
02/11:00am 13.0 7.2 6.4 64 3.2 SW 26 41 14 22 1019.9 1019.8 0.0
02/10:30am 12.5 6.6 5.7 63 3.2 SW 26 35 14 19 1020.2 - 0.0
02/10:00am 11.9 6.6 6.8 71 2.4 SW 24 35 13 19 1020.0 1019.9 0.0
02/09:30am 10.4 5.5 6.9 79 1.7 SW 22 30 12 16 1020.0 - 0.0
02/09:00am 9.8 4.6 7.2 84 1.2 SW 24 37 13 20 1019.8 1019.7 1.8
02/08:30am 8.9 3.6 6.7 86 1.0 WSW 24 35 13 19 1019.3 - 1.8
02/08:00am 7.6 2.9 5.9 89 0.8 WSW 20 30 11 16 1018.9 1018.8 1.8
02/07:30am 7.5 3.0 6.1 91 0.6 WSW 19 26 10 14 1018.2 - 1.8
02/07:00am 7.2 2.6 6.3 94 0.4 WSW 20 26 11 14 1017.7 1017.5 1.8
02/06:30am 7.0 2.9 6.3 95 0.3 WSW 17 22 9 12 1017.1 - 1.8
02/06:00am 7.4 4.1 6.5 94 0.4 SW 13 17 7 9 1016.8 1016.6 1.8
02/05:30am 8.0 4.0 6.8 92 0.6 WSW 17 24 9 13 1016.3 - 1.8
02/05:00am 8.4 4.5 7.3 93 0.5 WSW 17 26 9 14 1016.0 1015.9 1.8
02/04:30am 8.5 4.3 7.4 93 0.5 WSW 19 28 10 15 1015.7 - 1.8
02/04:00am 8.8 4.5 7.7 93 0.5 WSW 20 32 11 17 1015.4 1015.3 1.8
02/03:30am 9.0 5.4 8.4 96 0.3 WSW 17 28 9 15 1015.2 - 1.8
02/03:00am 9.4 5.5 8.8 96 0.3 WSW 19 28 10 15 1015.2 1015.1 1.8
02/02:30am 9.4 6.0 9.3 99 0.0 WSW 17 24 9 13 1015.1 - 1.8
02/02:00am 9.6 6.3 9.5 99 0.0 WSW 17 26 9 14 1015.0 1014.9 1.8
02/01:30am 9.6 7.0 9.5 99 0.0 W 13 20 7 11 1015.2 - 1.6
02/01:00am 9.6 7.4 9.5 99 0.0 W 11 15 6 8 1015.3 1015.2 1.6
02/12:30am 10.0 7.6 9.9 99 0.1 W 13 20 7 11 1015.2 - 1.6
02/12:00am 10.3 7.9 10.1 99 0.1 W 13 17 7 9 1015.1 1015.0 1.6
 
Date/Time
EST
Temp
°C
App
Temp
°C
Dew
Point
Rel
Hum
%
Delta-T
°C
Wind Press
QNH
hPa
Press
MSL
hPa
Rain
since 9 am
mm
Dir
 
Spd
km/h
Gust
km/h
Spd
kts
Gust
kts
01/11:30pm 10.2 8.5 10.0 99 0.1 W 9 13 5 7 1015.1 - 1.6
01/11:00pm 10.6 8.7 10.4 99 0.1 WSW 11 17 6 9 1015.1 1015.0 1.6
01/10:30pm 11.2 9.8 10.9 98 0.2 WSW 9 11 5 6 1015.0 - 1.6
01/10:00pm 11.5 9.7 10.7 95 0.4 SW 11 15 6 8 1014.9 1014.8 1.4
01/09:30pm 11.8 9.1 10.4 91 0.7 SW 15 20 8 11 1014.6 - 1.4
01/09:00pm 12.1 9.0 10.2 88 1.0 WSW 17 22 9 12 1014.6 1014.5 1.4
01/08:30pm 12.1 9.9 10.8 92 0.7 W 13 15 7 8 1014.1 - 1.4
01/08:00pm 12.0 7.5 10.1 88 1.0 NW 24 35 13 19 1014.2 1014.1 1.2
01/07:30pm 12.1 7.4 9.1 82 1.5 W 24 39 13 21 1014.3 - 0.2
01/07:00pm 14.6 8.2 6.9 60 3.8 W 30 56 16 30 1014.2 1014.1 0.0
01/06:59pm 14.7 8.7 7.0 60 3.8 W 28 52 15 28 1014.3 - 0.0
01/06:30pm 15.5 9.6 6.0 53 4.6 WSW 26 39 14 21 1013.6 - 0.0
01/06:12pm 15.9 9.7 6.3 53 4.7 WSW 28 48 15 26 1013.2 - 0.0
01/06:00pm 16.0 9.5 6.7 54 4.6 WSW 30 41 16 22 1012.7 1012.6 0.0
01/05:50pm 16.1 10.1 7.1 55 4.5 SW 28 46 15 25 1012.7 - 0.0
01/05:30pm 16.5 11.0 7.4 55 4.6 SW 26 39 14 21 1012.2 - 0.0
01/05:00pm 17.1 10.8 7.5 53 4.8 SW 30 48 16 26 1012.0 1011.9 0.0
01/04:41pm 17.5 10.6 7.3 51 5.1 SW 33 52 18 28 1011.7 - 0.0
01/04:30pm 18.2 11.9 7.3 49 5.5 SW 30 43 16 23 1011.3 - 0.0
01/04:00pm 19.3 12.0 4.3 37 7.2 SW 32 43 17 23 1011.0 1010.9 0.0
01/03:30pm 21.4 13.8 -1.8 21 10.1 WSW 28 44 15 24 1010.1 - 0.0
01/03:00pm 23.3 15.9 -0.9 20 10.9 W 28 37 15 20 1010.2 1010.1 0.0
01/02:56pm 23.8 16.2 -1.9 18 11.4 WNW 28 46 15 25 1010.1 - 0.0
01/02:30pm 24.4 16.1 -1.4 18 11.6 WNW 32 44 17 24 1010.0 - 0.0
01/02:02pm 24.3 16.0 -1.5 18 11.5 NW 32 50 17 27 1010.1 - 0.0
01/02:00pm 24.3 16.0 -1.5 18 11.5 NW 32 44 17 24 1010.1 1010.0 0.0
01/01:30pm 24.8 17.8 -0.4 19 11.5 NW 26 32 14 17 1010.4 - 0.0
01/01:00pm 25.1 17.3 -0.9 18 11.8 NW 30 41 16 22 1010.9 1010.8 0.0
01/12:30pm 24.8 18.4 1.0 21 11.2 NNW 24 37 13 20 1011.4 - 0.0
01/12:00pm 23.9 17.1 0.9 22 10.7 NNW 26 37 14 20 1011.9 1011.8 0.0
01/11:30am 22.6 15.4 0.4 23 10.1 NNW 28 39 15 21 1012.4 - 0.0
01/11:00am 22.1 15.7 1.2 25 9.7 NNW 24 35 13 19 1012.7 1012.6 0.0
01/10:30am 21.2 14.4 1.0 26 9.2 N 26 35 14 19 1013.2 - 0.0
01/10:00am 20.8 15.2 1.1 27 9.0 N 20 32 11 17 1013.4 1013.3 0.0
01/09:30am 19.3 13.3 0.8 29 8.3 N 22 32 12 17 1013.7 - 0.0
01/09:00am 17.7 12.3 1.2 33 7.4 N 19 26 10 14 1013.9 1014.0 0.0
01/08:30am 16.6 11.1 0.7 34 7.0 N 19 28 10 15 1014.1 - 0.0
01/08:00am 15.9 10.3 0.9 36 6.5 N 20 26 11 14 1013.9 1014.0 0.0
01/07:30am 14.6 9.1 0.5 38 6.0 N 19 28 10 15 1014.2 - 0.0
01/07:00am 13.8 8.3 0.5 40 5.6 N 19 24 10 13 1013.9 1014.0 0.0
01/06:30am 13.4 8.6 0.1 40 5.6 N 15 20 8 11 1013.9 - 0.0
01/06:00am 13.9 9.1 0.2 39 5.8 N 15 19 8 10 1013.5 1013.6 0.0
01/05:30am 14.3 9.2 0.5 39 5.9 N 17 20 9 11 1013.4 - 0.0
01/05:00am 14.4 9.6 0.3 38 6.0 N 15 20 8 11 1013.4 1013.4 0.0
01/04:30am 14.3 9.9 0.5 39 5.9 N 13 17 7 9 1013.4 - 0.0
01/04:00am 14.7 9.9 0.5 38 6.1 N 15 19 8 10 1013.6 1013.7 0.0
01/03:30am 15.0 10.7 0.8 38 6.1 N 13 19 7 10 1013.5 - 0.0
01/03:00am 13.7 9.4 1.0 42 5.4 N 13 15 7 8 1013.5 1013.6 0.0
01/02:30am 13.5 8.8 0.9 42 5.4 N 15 17 8 9 1013.6 - 0.0
01/02:00am 13.0 8.8 1.4 45 5.0 N 13 17 7 9 1014.0 1014.1 0.0
01/01:30am 12.5 8.2 0.9 45 4.9 N 13 15 7 8 1014.1 - 0.0
01/01:00am 12.3 8.0 1.0 46 4.8 N 13 15 7 8 1014.3 1014.4 0.0
01/12:30am 12.8 8.6 1.5 46 4.9 N 13 13 7 7 1014.3 - 0.0
01/12:00am 12.8 8.6 1.5 46 4.9 N 13 15 7 8 1014.6 1014.7 0.0
 
Date/Time
EST
Temp
°C
App
Temp
°C
Dew
Point
Rel
Hum
%
Delta-T
°C
Wind Press
QNH
hPa
Press
MSL
hPa
Rain
since 9 am
mm
Dir
 
Spd
km/h
Gust
km/h
Spd
kts
Gust
kts
31/11:30pm 12.8 8.5 1.2 45 5.0 N 13 15 7 8 1014.7 - 0.0
31/11:00pm 13.5 9.2 1.2 43 5.3 NNE 13 15 7 8 1014.9 1015.0 0.0
31/10:30pm 14.8 10.9 1.0 39 6.0 N 11 13 6 7 1015.3 - 0.0
31/10:00pm 15.7 11.8 1.1 37 6.4 N 11 13 6 7 1015.5 1015.6 0.0
31/09:30pm 17.2 12.9 1.2 34 7.1 N 13 13 7 7 1015.7 - 0.0
31/09:00pm 17.2 13.4 1.6 35 7.0 N 11 13 6 7 1015.6 1015.7 0.0
31/08:30pm 16.7 12.8 1.2 35 6.9 N 11 13 6 7 1015.8 - 0.0
31/08:00pm 18.2 14.3 1.3 32 7.6 N 11 13 6 7 1016.0 1016.1 0.0
31/07:30pm 18.6 14.7 1.2 31 7.8 N 11 13 6 7 1016.0 - 0.0
31/07:00pm 18.9 15.4 1.4 31 7.9 N 9 11 5 6 1015.9 1016.0 0.0
31/06:30pm 19.5 16.0 1.0 29 8.3 N 9 11 5 6 1015.7 - 0.0
31/06:00pm 20.9 17.4 1.2 27 9.0 NNW 9 11 5 6 1015.5 1015.6 0.0

Other Formats:

Comma delimited format used in spreadsheet applications
http://www.bom.gov.au/fwo/IDN60801/IDN60801.95697.axf

JavaScript Object Notation format (JSON) in row-major order
http://www.bom.gov.au/fwo/IDN60801/IDN60801.95697.json